Time;durP1;ratioP1;P1;durP2;ratioP2;P2;SDS_P1;SDS_P2;PMS_P1;PMS_P2;Temp;Humidity;BMP_temperature;BMP_pressure;BME280_temperature;BME280_humidity;BME280_pressure;Samples;Min_cycle;Max_cycle;Signal;HPM_P1;HPM_P2
2023/09/23 00:13:51;;;;;;;3.33;1.30;;;;;;;24.20;56.06;96085.13;6124630;23;20415;-28
2023/09/23 00:29:44;;;;;;;4.78;1.40;;;;;;;24.13;55.61;96031.06;6125524;23;20021;-27
2023/09/23 00:58:47;;;;;;;2.83;1.00;;;;;;;24.31;54.34;95968.63;6036348;23;20358;-27
2023/09/23 01:14:38;;;;;;;2.30;1.52;;;;;;;24.23;53.91;95959.44;6045279;23;20030;-26
2023/09/23 01:30:30;;;;;;;3.35;1.17;;;;;;;24.18;54.10;95971.31;6126792;23;20353;-27
2023/09/23 01:32:56;;;;;;;3.72;0.98;;;;;;;24.25;53.93;95954.09;6127269;23;20001;-27
2023/09/23 01:45:26;;;;;;;2.85;1.10;;;;;;;24.21;53.37;95965.47;6127105;23;20075;-26
2023/09/23 02:01:19;;;;;;;2.58;0.85;;;;;;;24.25;52.81;95954.09;6126836;23;20041;-27
2023/09/23 02:32:00;;;;;;;4.00;0.90;;;;;;;24.30;52.60;95956.78;6097267;23;20017;-27
2023/09/23 02:44:56;;;;;;;2.35;0.73;;;;;;;24.30;51.67;95947.72;6097419;23;20065;-27
2023/09/23 03:01:14;;;;;;;2.17;0.70;;;;;;;24.20;51.81;95925.19;6096817;23;19968;-27
2023/09/23 03:03:40;;;;;;;1.25;0.80;;;;;;;24.26;51.73;95933.41;6097484;23;20014;-26
2023/09/23 03:16:28;;;;;;;3.53;0.82;;;;;;;24.39;51.22;95941.00;6117462;23;20098;-26
2023/09/23 03:46:10;;;;;;;2.67;0.75;;;;;;;24.24;51.74;95964.41;6125896;23;20389;-27
2023/09/23 04:02:05;;;;;;;2.88;0.82;;;;;;;24.29;51.43;95974.69;6125529;23;20021;-27
2023/09/23 04:17:58;;;;;;;2.63;1.00;;;;;;;24.12;52.08;95976.19;6124811;23;20400;-26
2023/09/23 04:31:13;;;;;;;3.20;1.00;;;;;;;24.32;51.40;95981.94;6125408;23;20021;-27
2023/09/23 04:47:06;;;;;;;4.55;1.15;;;;;;;24.21;51.27;96000.75;6127358;23;20017;-27
2023/09/23 05:02:58;;;;;;;1.92;0.80;;;;;;;24.17;51.24;96030.78;6126956;23;20057;-28
2023/09/23 05:33:08;;;;;;;1.88;0.75;;;;;;;24.07;51.46;96032.44;6127078;23;20021;-27
2023/09/23 05:49:02;;;;;;;1.83;0.77;;;;;;;24.28;51.47;96050.03;6126593;23;20017;-27
2023/09/23 06:02:10;;;;;;;3.03;1.02;;;;;;;24.22;51.84;96066.75;6127206;23;20025;-27
2023/09/23 06:18:02;;;;;;;3.20;1.00;;;;;;;24.24;51.58;96064.19;6125605;23;20503;-27
2023/09/23 06:33:54;;;;;;;3.25;0.80;;;;;;;24.41;51.11;96094.41;6126389;23;20053;-27
2023/09/23 06:49:47;;;;;;;3.33;1.10;;;;;;;24.33;52.66;96104.63;6126194;23;20072;-26
2023/09/23 06:52:12;;;;;;;3.95;1.20;;;;;;;24.22;53.07;96110.31;6126679;23;20006;-27
2023/09/23 07:04:43;;;;;;;2.80;0.90;;;;;;;24.28;53.56;96102.66;6126358;23;20050;-26
2023/09/23 07:17:58;;;;;;;2.05;0.85;;;;;;;24.53;53.32;96123.47;6126077;23;20471;-28
2023/09/23 07:20:24;;;;;;;1.88;0.80;;;;;;;24.43;53.43;96119.59;6125648;23;20047;-27
2023/09/23 07:33:11;;;;;;;4.88;1.00;;;;;;;24.41;54.67;96122.13;6126018;23;20053;-26
2023/09/23 07:49:04;;;;;;;5.32;1.25;;;;;;;24.65;54.51;96130.34;6125765;23;20475;-27
2023/09/23 08:04:56;;;;;;;3.55;0.90;;;;;;;24.56;54.39;96139.06;6125500;23;20495;-27
2023/09/23 08:07:22;;;;;;;4.38;0.80;;;;;;;24.65;54.16;96137.91;6126278;23;20005;-27
2023/09/23 08:09:47;;;;;;;2.15;1.10;;;;;;;24.63;54.53;96138.44;6126546;23;20009;-27
2023/09/23 08:18:56;;;;;;;2.75;0.98;;;;;;;24.65;54.00;96135.16;6125597;23;20037;-28
2023/09/23 08:34:49;;;;;;;2.47;0.80;;;;;;;24.90;53.93;96125.41;6127501;23;20017;-26
2023/09/23 08:50:46;;;;;;;2.25;0.93;;;;;;;24.58;55.69;96127.44;6127829;23;20033;-26
2023/09/23 08:53:16;;;;;;;3.20;1.40;;;;;;;24.97;54.48;96115.78;6127785;23;20002;-28
2023/09/23 09:05:48;;;;;;;2.63;0.90;;;;;;;25.05;53.98;96100.72;6127564;23;20440;-27
2023/09/23 09:21:41;;;;;;;1.67;0.70;;;;;;;25.21;54.55;96090.63;6123485;23;20021;-26
2023/09/23 09:37:34;;;;;;;5.00;1.20;;;;;;;24.92;54.72;96083.28;6126925;23;20017;-27
2023/09/23 09:53:29;;;;;;;3.80;1.05;;;;;;;25.19;54.46;96075.78;6126974;23;20017;-27
2023/09/23 10:22:54;;;;;;;3.30;1.00;;;;;;;25.15;53.22;96109.38;6125809;23;20025;-27
2023/09/23 10:38:47;;;;;;;5.32;1.00;;;;;;;25.03;52.95;96097.75;6126127;23;20024;-27
2023/09/23 10:54:40;;;;;;;2.85;1.20;;;;;;;25.10;53.68;96096.34;6126313;23;20016;-27
2023/09/23 10:57:05;;;;;;;5.57;1.10;;;;;;;25.22;53.14;96097.66;6126429;23;20097;-27
2023/09/23 11:09:36;;;;;;;2.40;0.80;;;;;;;25.33;52.28;96097.47;6126412;23;20020;-27
2023/09/23 11:22:51;;;;;;;3.17;1.23;;;;;;;25.21;53.13;96084.31;6126323;23;20068;-27
2023/09/23 11:39:37;;;;;;;3.90;1.00;;;;;;;25.15;52.70;96053.88;6125811;23;20024;-27
2023/09/23 11:55:31;;;;;;;2.22;1.00;;;;;;;25.57;51.79;96048.56;6125858;23;20052;-29
2023/09/23 12:08:26;;;;;;;2.00;0.90;;;;;;;25.34;51.11;96037.91;6125344;23;20093;-28
2023/09/23 12:24:19;;;;;;;1.77;0.73;;;;;;;25.22;51.19;96025.50;6124120;23;20032;-27
2023/09/23 12:40:13;;;;;;;2.15;1.05;;;;;;;25.36;49.97;96026.97;6125514;23;20340;-28
2023/09/23 12:56:06;;;;;;;2.03;0.90;;;;;;;25.27;50.46;96054.44;6125281;23;20025;-26
2023/09/23 13:09:10;;;;;;;1.88;0.70;;;;;;;25.36;50.49;96040.88;6127287;23;20571;-26
2023/09/23 13:25:02;;;;;;;4.20;0.95;;;;;;;25.34;52.94;96035.13;6126017;23;20033;-27
2023/09/23 13:41:14;;;;;;;2.60;1.30;;;;;;;25.22;54.20;96053.25;6127257;23;20279;-27
2023/09/23 13:54:38;;;;;;;2.00;0.95;;;;;;;25.32;53.58;96021.03;6126768;23;20385;-27
2023/09/23 14:10:31;;;;;;;3.38;1.08;;;;;;;25.35;51.60;96036.59;6126538;23;20110;-29
2023/09/23 14:26:23;;;;;;;1.73;0.88;;;;;;;25.09;50.76;95999.78;6125222;23;20036;-28
2023/09/23 14:28:50;;;;;;;2.97;1.02;;;;;;;25.12;50.21;96012.56;6126892;23;20085;-27
2023/09/23 14:31:15;;;;;;;1.50;0.85;;;;;;;25.03;50.64;96019.31;6126759;23;20006;-27
2023/09/23 14:40:27;;;;;;;2.83;1.00;;;;;;;25.14;51.10;96024.66;6126881;23;20080;-27
2023/09/23 14:56:21;;;;;;;3.00;0.65;;;;;;;25.00;48.94;96046.09;6126347;23;20093;-28
2023/09/23 15:12:13;;;;;;;2.80;0.68;;;;;;;25.25;47.45;96029.97;6125814;23;20084;-26
2023/09/23 15:42:25;;;;;;;2.53;0.60;;;;;;;24.67;45.80;96066.06;6126019;23;20396;-27
2023/09/23 16:11:44;;;;;;;4.65;1.17;;;;;;;24.33;48.64;96082.47;6125846;23;20020;-27
2023/09/23 16:27:40;;;;;;;5.38;1.17;;;;;;;24.55;46.95;96086.91;6124282;23;20048;-27
2023/09/23 16:43:32;;;;;;;2.70;1.08;;;;;;;24.50;45.90;96085.72;6127379;23;20456;-27
2023/09/23 16:56:49;;;;;;;1.90;0.80;;;;;;;24.46;45.42;96093.59;6127269;23;20060;-27
2023/09/23 17:12:43;;;;;;;3.40;0.70;;;;;;;24.39;44.72;96079.59;6127573;23;20451;-26
2023/09/23 17:28:35;;;;;;;2.75;0.82;;;;;;;24.23;43.96;96098.69;6125545;23;20352;-27
2023/09/23 17:57:55;;;;;;;1.00;0.60;;;;;;;24.38;41.87;96114.88;6126732;23;20065;-27
2023/09/23 18:00:21;;;;;;;3.17;0.95;;;;;;;24.28;42.06;96116.53;6127012;23;20372;-27
2023/09/23 18:12:51;;;;;;;2.67;0.98;;;;;;;24.12;42.16;96132.06;6126974;23;20509;-27
2023/09/23 18:28:44;;;;;;;3.40;1.10;;;;;;;24.23;41.00;96162.44;6125430;23;20089;-28
2023/09/23 18:44:36;;;;;;;5.50;1.30;;;;;;;24.15;41.25;96163.53;6126150;23;20060;-27
2023/09/23 19:00:28;;;;;;;2.63;0.90;;;;;;;24.12;41.94;96172.88;6126342;23;20021;-27
2023/09/23 19:13:23;;;;;;;4.32;1.13;;;;;;;24.22;41.72;96174.03;6126604;23;20040;-26
2023/09/23 19:15:50;;;;;;;3.05;0.77;;;;;;;24.25;41.64;96181.31;6126318;23;20006;-26
2023/09/23 19:28:46;;;;;;;3.28;0.85;;;;;;;24.12;42.34;96186.72;6124814;23;20032;-27
2023/09/23 19:44:54;;;;;;;3.45;0.70;;;;;;;23.99;41.04;96192.94;6096422;23;20070;-26
2023/09/23 20:00:51;;;;;;;2.38;0.60;;;;;;;23.97;40.12;96204.56;6096766;23;20037;-27
2023/09/23 20:14:06;;;;;;;3.55;0.80;;;;;;;23.95;40.21;96223.72;6096054;23;20455;-27
2023/09/23 20:29:59;;;;;;;2.88;0.90;;;;;;;23.99;40.68;96249.06;6112425;23;20060;-26
2023/09/23 20:45:52;;;;;;;3.45;1.10;;;;;;;23.87;41.93;96236.63;6125388;23;20028;-26
2023/09/23 21:01:44;;;;;;;3.80;0.82;;;;;;;23.81;42.37;96244.25;6125507;23;20089;-26
2023/09/23 21:14:45;;;;;;;7.18;1.67;;;;;;;23.73;42.54;96257.19;6125594;23;20012;-27
2023/09/23 21:30:38;;;;;;;4.25;1.00;;;;;;;23.71;42.73;96278.34;6125800;23;20033;-27
2023/09/23 21:46:31;;;;;;;4.07;1.02;;;;;;;23.79;43.12;96263.38;6126987;23;20017;-25
2023/09/23 22:02:24;;;;;;;7.90;1.08;;;;;;;23.69;43.41;96267.78;6127123;23;20024;-27
2023/09/23 22:04:51;;;;;;;4.55;0.95;;;;;;;23.72;42.97;96275.06;6127271;23;20006;-28
2023/09/23 22:17:25;;;;;;;4.78;0.98;;;;;;;23.55;43.15;96264.13;6126679;23;20012;-28
2023/09/23 22:30:40;;;;;;;6.93;1.45;;;;;;;23.58;43.38;96242.97;6126723;23;20061;-27
2023/09/23 22:47:23;;;;;;;8.85;1.40;;;;;;;23.76;43.56;96260.91;6097246;23;20021;-27
2023/09/23 22:49:48;;;;;;;7.80;1.23;;;;;;;23.66;43.83;96268.81;6097223;23;20010;-27
2023/09/23 23:02:19;;;;;;;6.28;1.42;;;;;;;23.72;43.96;96269.50;6097191;23;20013;-27
2023/09/23 23:18:13;;;;;;;5.32;1.05;;;;;;;23.72;42.77;96269.50;6096886;23;20014;-27
2023/09/23 23:20:39;;;;;;;5.85;1.10;;;;;;;23.82;41.93;96264.38;6071436;23;20337;-27
2023/09/23 23:33:10;;;;;;;5.80;0.90;;;;;;;23.76;41.94;96274.75;6122766;23;20053;-27
2023/09/23 23:49:03;;;;;;;13.45;2.85;;;;;;;23.63;46.18;96305.81;6125544;23;20016;-27
